Pipestone, MN

12:26 AM CDT on April 25, 2018 (GMT -0500)
Pipestone Municipal

Weather History for KPQN - November, 2013

Change the Weather History Date:

Friday, November 8, 2013

  Actual Average Record
Temperature  
Mean Temperature 34 °F -  
Max Temperature 48 °F 43 °F 78 °F (1999)
Min Temperature 19 °F 25 °F 3 °F (2003)
Degree Days  
Heating Degree Days 32    
Moisture  
Dew Point 31 °F    
Average Humidity 78    
Maximum Humidity 93    
Minimum Humidity 61    
Precipitation  
Precipitation 0.00 in - - ()
Sea Level Pressure  
Sea Level Pressure 29.80 in    
Wind  
Wind Speed 11 mph (SSW)    
Max Wind Speed 25 mph    
Max Gust Speed 31 mph    
Visibility 10 miles    
Events      
Averages and records for this station are not official NWS values.
T = Trace of Precipitation, MM = Missing Value Source: NWS Daily Summary

Daily Weather History Graph

Daily Weather History Graph

Search for Another Location

Airport or City:

Astronomy

Nov. 08, 2013 Rise Set
Actual Time 7:11 AM CST 5:06 PM CST
Civil Twilight 6:40 AM CST 5:36 PM CST
Nautical Twilight 6:06 AM CST 6:11 PM CST
Astronomical Twilight 5:32 AM CST 6:44 PM CST
Moon 12:07 PM CST (11/8) 10:29 PM CST (11/8)
Length of Visible Light 10h 56m
Length of Day
9h 54m
Waxing Crescent, 33% of the Moon is Illuminated
Nov 8
Waxing Crescent
Nov 9
First Quarter
Nov 17
Full
Nov 25
Last Quarter
Dec 2
New

Hourly Weather History & Observations

Time (CST) Temp. Windchill Dew Point Humidity Pressure Visibility Wind Dir Wind Speed Gust Speed Precip Events Conditions
12:13 AM 24.8 °F 20.5 °F 21.2 °F 86% 30.16 in 10.0 mi South 3.5 mph - N/A   Clear
12:33 AM 24.8 °F 19.1 °F 21.2 °F 86% 30.15 in 10.0 mi SSE 4.6 mph - N/A   Clear
12:53 AM 21.2 °F 16.4 °F 19.4 °F 93% 30.15 in 10.0 mi SSE 3.5 mph - N/A   Clear
1:13 AM 21.2 °F 13.6 °F 19.4 °F 93% 30.15 in 10.0 mi SE 5.8 mph - N/A   Clear
1:33 AM 19.4 °F 11.5 °F 17.6 °F 93% 30.14 in 10.0 mi SE 5.8 mph - N/A   Clear
1:53 AM 19.4 °F 11.5 °F 17.6 °F 93% 30.13 in 10.0 mi SE 5.8 mph - N/A   Clear
2:13 AM 19.4 °F 11.5 °F 17.6 °F 93% 30.12 in 10.0 mi SE 5.8 mph - N/A   Clear
2:33 AM 21.2 °F 14.9 °F 19.4 °F 93% 30.12 in 10.0 mi SSE 4.6 mph - N/A   Clear
2:53 AM 21.2 °F 14.9 °F 19.4 °F 93% 30.11 in 10.0 mi SE 4.6 mph - N/A   Clear
3:12 AM 21.2 °F 13.6 °F 19.4 °F 93% 30.10 in 10.0 mi SE 5.8 mph - N/A   Clear
3:33 AM 23.0 °F 14.7 °F 19.4 °F 86% 30.08 in 10.0 mi SE 6.9 mph - N/A   Clear
3:52 AM 24.8 °F 16.9 °F 21.2 °F 86% 30.06 in 10.0 mi SSE 6.9 mph - N/A   Clear
4:13 AM 28.4 °F 21.2 °F 23.0 °F 80% 30.04 in 10.0 mi SSE 6.9 mph - N/A   Clear
4:33 AM 28.4 °F 20.4 °F 23.0 °F 80% 30.04 in 10.0 mi SSE 8.1 mph - N/A   Clear
4:53 AM 28.4 °F 19.1 °F 23.0 °F 80% 30.02 in 10.0 mi SSE 10.4 mph - N/A   Clear
5:13 AM 30.2 °F 20.8 °F 23.0 °F 75% 30.01 in 10.0 mi South 11.5 mph - N/A   Scattered Clouds
5:33 AM 30.2 °F 20.8 °F 24.8 °F 80% 30.00 in 10.0 mi South 11.5 mph - N/A   Scattered Clouds
5:53 AM 30.2 °F 20.8 °F 24.8 °F 80% 29.98 in 10.0 mi SSE 11.5 mph - N/A   Overcast
6:13 AM 30.2 °F 20.2 °F 24.8 °F 80% 29.96 in 10.0 mi SSE 12.7 mph - N/A   Mostly Cloudy
6:33 AM 30.2 °F 20.2 °F 24.8 °F 80% 29.95 in 10.0 mi SSE 12.7 mph 17.3 mph N/A   Scattered Clouds
6:53 AM 32.0 °F 23.0 °F 24.8 °F 75% 29.93 in 10.0 mi SSE 11.5 mph - N/A   Clear
7:13 AM 33.8 °F 24.3 °F 26.6 °F 75% 29.92 in 10.0 mi SSE 13.8 mph 18.4 mph N/A   Clear
7:33 AM 33.8 °F 23.9 °F 26.6 °F 75% 29.90 in 10.0 mi SSE 15.0 mph 21.9 mph N/A   Clear
7:53 AM 35.6 °F 25.2 °F 26.6 °F 70% 29.88 in 10.0 mi SSE 18.4 mph 23.0 mph N/A   Clear
8:13 AM 35.6 °F 25.5 °F 26.6 °F 70% 29.86 in 10.0 mi SSE 17.3 mph 21.9 mph N/A   Clear
8:33 AM 35.6 °F 25.2 °F 26.6 °F 70% 29.85 in 10.0 mi South 18.4 mph 27.6 mph N/A   Clear
8:53 AM 37.4 °F 27.5 °F 26.6 °F 65% 29.82 in 10.0 mi SSE 18.4 mph 29.9 mph N/A   Clear
9:13 AM 37.4 °F 27.5 °F 28.4 °F 70% 29.82 in 10.0 mi South 18.4 mph 26.5 mph N/A   Clear
9:33 AM 39.2 °F 29.3 °F 28.4 °F 65% 29.80 in 10.0 mi South 20.7 mph 27.6 mph N/A   Scattered Clouds
9:53 AM 39.2 °F 28.7 °F 28.4 °F 65% 29.77 in 10.0 mi South 23.0 mph 29.9 mph N/A   Scattered Clouds
10:13 AM 37.4 °F 27.2 °F 28.4 °F 70% 29.76 in 10.0 mi South 19.6 mph 27.6 mph N/A   Clear
10:33 AM 39.2 °F 29.0 °F 28.4 °F 65% 29.74 in 10.0 mi South 21.9 mph 29.9 mph N/A   Clear
10:53 AM 41.0 °F 30.7 °F 28.4 °F 61% 29.73 in 10.0 mi South 25.3 mph 31.1 mph N/A   Scattered Clouds
11:13 AM 39.2 °F 29.0 °F 30.2 °F 70% 29.72 in 10.0 mi South 21.9 mph 29.9 mph N/A   Scattered Clouds
11:33 AM 39.2 °F 29.0 °F 30.2 °F 70% 29.70 in 10.0 mi South 21.9 mph 29.9 mph N/A   Clear
11:53 AM 39.2 °F 29.8 °F 30.2 °F 70% 29.68 in 10.0 mi South 18.4 mph 27.6 mph N/A   Clear
12:11 PM 39.2 °F 30.2 °F 30.2 °F 70% 29.67 in 10.0 mi South 17.3 mph 26.5 mph N/A   Clear
12:33 PM 39.2 °F - 32.0 °F 75% 29.64 in 10.0 mi North - - N/A   Clear
12:53 PM 39.2 °F 30.5 °F 33.8 °F 81% - 10.0 mi South 16.1 mph 23.0 mph N/A   Scattered Clouds
1:13 PM 41.0 °F 32.5 °F 33.8 °F 76% 29.62 in 10.0 mi South 17.3 mph 23.0 mph N/A   Clear
1:26 PM 42.8 °F 34.0 °F 33.8 °F 70% 29.61 in 10.0 mi South 20.7 mph 28.8 mph N/A   Clear
1:53 PM 42.8 °F 34.0 °F 33.8 °F 70% 29.59 in 10.0 mi South 20.7 mph 27.6 mph N/A   Clear
2:14 PM 42.8 °F 35.8 °F 35.6 °F 76% 29.59 in 10.0 mi SSW 13.8 mph 20.7 mph N/A   Scattered Clouds
2:33 PM 44.6 °F 37.4 °F 35.6 °F 71% 29.59 in 10.0 mi SSW 16.1 mph 20.7 mph N/A   Clear
2:53 PM 44.6 °F 37.8 °F 35.6 °F 71% 29.60 in 10.0 mi SW 15.0 mph - N/A   Clear
3:13 PM 44.6 °F 39.2 °F 37.4 °F 76% 29.60 in 10.0 mi SW 10.4 mph - N/A   Clear
3:33 PM 46.4 °F 40.7 °F 37.4 °F 71% 29.59 in 10.0 mi SW 12.7 mph - N/A   Scattered Clouds
3:53 PM 46.4 °F 40.4 °F 39.2 °F 76% 29.60 in 10.0 mi SW 13.8 mph 20.7 mph N/A   Clear
4:13 PM 46.4 °F 41.1 °F 39.2 °F 76% 29.60 in 10.0 mi SW 11.5 mph - N/A   Clear
4:33 PM 46.4 °F 40.7 °F 39.2 °F 76% 29.60 in 10.0 mi SW 12.7 mph - N/A   Mostly Cloudy
4:53 PM 46.4 °F 41.5 °F 39.2 °F 76% 29.61 in 10.0 mi WSW 10.4 mph - N/A   Overcast
5:14 PM 48.2 °F - 39.2 °F 71% 29.60 in 10.0 mi West 16.1 mph 21.9 mph N/A   Mostly Cloudy
5:33 PM 46.4 °F 38.7 °F 39.2 °F 76% 29.61 in 10.0 mi West 20.7 mph 27.6 mph N/A   Scattered Clouds
5:53 PM 44.6 °F 36.9 °F 39.2 °F 81% 29.65 in 10.0 mi WNW 18.4 mph 27.6 mph N/A   Scattered Clouds
6:13 PM 44.6 °F 38.1 °F 39.2 °F 81% 29.66 in 10.0 mi West 13.8 mph - N/A   Mostly Cloudy
6:33 PM 42.8 °F 37.0 °F 39.2 °F 87% 29.66 in 10.0 mi West 10.4 mph - N/A   Scattered Clouds
6:53 PM 42.8 °F 38.0 °F 37.4 °F 81% 29.67 in 10.0 mi West 8.1 mph - N/A   Scattered Clouds
7:13 PM 42.8 °F 38.0 °F 39.2 °F 87% 29.67 in 10.0 mi WSW 8.1 mph - N/A   Mostly Cloudy
7:33 PM 42.8 °F 39.3 °F 39.2 °F 87% 29.67 in 10.0 mi WSW 5.8 mph - N/A   Overcast
7:53 PM 44.6 °F 38.8 °F 39.2 °F 81% 29.67 in 10.0 mi West 11.5 mph - N/A   Overcast
8:13 PM 42.8 °F 36.2 °F 37.4 °F 81% 29.67 in 10.0 mi West 12.7 mph - N/A   Overcast
8:33 PM 44.6 °F 38.4 °F 37.4 °F 76% 29.68 in 10.0 mi West 12.7 mph - N/A   Overcast
8:53 PM 44.6 °F 37.2 °F 37.4 °F 76% 29.68 in 10.0 mi WNW 17.3 mph 26.5 mph N/A   Overcast
9:13 PM 44.6 °F 37.8 °F 37.4 °F 76% 29.68 in 10.0 mi WNW 15.0 mph 23.0 mph N/A   Overcast
9:34 PM 44.6 °F 38.1 °F 37.4 °F 76% 29.68 in 10.0 mi WNW 13.8 mph 21.9 mph N/A   Overcast
9:53 PM 44.6 °F 37.8 °F 37.4 °F 76% 29.69 in 10.0 mi WNW 15.0 mph 20.7 mph N/A   Overcast
10:13 PM 44.6 °F 37.4 °F 39.2 °F 81% 29.70 in 10.0 mi WNW 16.1 mph 20.7 mph N/A   Overcast
10:33 PM 44.6 °F 37.4 °F 39.2 °F 81% 29.71 in 10.0 mi WNW 16.1 mph - N/A   Overcast
10:53 PM 42.8 °F 36.2 °F 39.2 °F 87% 29.72 in 10.0 mi West 12.7 mph - N/A   Mostly Cloudy
11:13 PM 42.8 °F 35.4 °F 37.4 °F 81% 29.72 in 10.0 mi West 15.0 mph - N/A   Clear
11:33 PM 42.8 °F 35.8 °F 37.4 °F 81% 29.73 in 10.0 mi West 13.8 mph 19.6 mph N/A   Clear
11:53 PM 42.8 °F 35.8 °F 37.4 °F 81% 29.74 in 10.0 mi West 13.8 mph - N/A   Clear